Time;durP1;ratioP1;P1;durP2;ratioP2;P2;SDS_P1;SDS_P2;PMS_P1;PMS_P2;Temp;Humidity;BMP_temperature;BMP_pressure;BME280_temperature;BME280_humidity;BME280_pressure;Samples;Min_cycle;Max_cycle;Signal;HPM_P1;HPM_P2
2020/12/07 00:01:24;;;;;;;16.47;11.43;;;9.60;99.90;;;;;;5057837;28;20456;-64
2020/12/07 00:03:50;;;;;;;18.40;11.20;;;9.60;99.90;;;;;;5057437;28;20471;-65
2020/12/07 00:06:17;;;;;;;18.70;12.30;;;9.60;99.90;;;;;;5057286;28;20455;-65
2020/12/07 00:08:44;;;;;;;17.10;11.33;;;9.60;99.90;;;;;;5056745;28;20485;-65
2020/12/07 00:11:10;;;;;;;21.90;12.77;;;9.60;99.90;;;;;;5056602;28;20458;-64
2020/12/07 00:13:36;;;;;;;19.50;11.93;;;9.60;99.90;;;;;;5057080;28;20451;-65
2020/12/07 00:16:03;;;;;;;16.70;12.30;;;9.60;99.90;;;;;;5056829;28;20456;-65
2020/12/07 00:18:29;;;;;;;17.90;11.73;;;9.50;99.90;;;;;;5057998;28;20463;-64
2020/12/07 00:20:55;;;;;;;20.40;11.90;;;9.50;99.90;;;;;;5057026;28;20455;-65
2020/12/07 00:23:21;;;;;;;17.00;12.20;;;9.50;99.90;;;;;;5057340;28;20939;-65
2020/12/07 00:25:48;;;;;;;16.83;11.57;;;9.50;99.90;;;;;;5057075;28;20814;-64
2020/12/07 00:28:14;;;;;;;17.90;11.43;;;9.50;99.90;;;;;;5062710;28;20513;-65
2020/12/07 00:30:40;;;;;;;17.07;11.20;;;9.50;99.90;;;;;;5064202;28;20459;-65
2020/12/07 00:33:06;;;;;;;16.50;10.80;;;9.40;99.90;;;;;;5062356;28;20524;-65
2020/12/07 00:35:32;;;;;;;17.20;11.80;;;9.40;99.90;;;;;;5063203;28;20451;-65
2020/12/07 00:37:58;;;;;;;18.50;11.97;;;9.40;99.90;;;;;;5062662;28;20459;-65
2020/12/07 00:40:24;;;;;;;16.37;11.10;;;9.40;99.90;;;;;;5064339;28;20463;-65
2020/12/07 00:42:51;;;;;;;14.87;10.97;;;9.40;99.90;;;;;;5062719;28;20820;-66
2020/12/07 00:45:17;;;;;;;13.50;11.00;;;9.40;99.90;;;;;;5063790;28;20483;-66
2020/12/07 00:47:43;;;;;;;19.07;11.57;;;9.40;99.90;;;;;;5062101;28;20455;-66
2020/12/07 00:50:10;;;;;;;14.80;10.10;;;9.40;99.90;;;;;;5058854;28;20513;-65
2020/12/07 00:52:36;;;;;;;21.30;11.60;;;9.40;99.90;;;;;;5060939;28;20474;-65
2020/12/07 00:55:02;;;;;;;15.47;10.53;;;9.40;99.90;;;;;;5057918;28;20824;-65
2020/12/07 00:57:28;;;;;;;18.97;10.73;;;9.40;99.90;;;;;;5055743;28;20487;-64
2020/12/07 00:59:55;;;;;;;16.23;10.47;;;9.40;99.90;;;;;;5055771;28;20512;-63
2020/12/07 01:02:21;;;;;;;16.83;11.63;;;9.40;99.90;;;;;;5055333;28;20513;-64
2020/12/07 01:04:47;;;;;;;17.53;11.57;;;9.40;99.90;;;;;;5055228;28;20540;-64
2020/12/07 01:07:13;;;;;;;15.57;11.53;;;9.40;99.90;;;;;;5055140;28;20454;-64
2020/12/07 01:09:39;;;;;;;14.37;10.60;;;9.40;99.90;;;;;;5055372;28;20489;-63
2020/12/07 01:12:05;;;;;;;13.80;9.73;;;9.40;99.90;;;;;;5055125;28;20455;-64
2020/12/07 01:14:31;;;;;;;13.87;10.40;;;9.40;99.90;;;;;;5055326;28;20784;-65
2020/12/07 01:16:59;;;;;;;15.93;10.33;;;9.40;99.90;;;;;;5055310;28;20525;-64
2020/12/07 01:19:26;;;;;;;15.60;10.60;;;9.40;99.90;;;;;;5055274;28;20775;-65
2020/12/07 01:21:52;;;;;;;14.73;10.60;;;9.40;99.90;;;;;;5055122;28;20455;-65
2020/12/07 01:24:18;;;;;;;14.70;10.63;;;9.40;99.90;;;;;;5054846;28;20479;-64
2020/12/07 01:26:44;;;;;;;18.07;12.10;;;9.40;99.90;;;;;;5054492;28;20455;-65
2020/12/07 01:29:10;;;;;;;15.90;11.47;;;9.40;99.90;;;;;;5055222;28;20455;-64
2020/12/07 01:31:36;;;;;;;15.10;10.27;;;9.40;99.90;;;;;;5054523;28;20900;-64
2020/12/07 01:34:04;;;;;;;15.37;10.83;;;9.40;99.90;;;;;;5054453;28;20901;-64
2020/12/07 01:36:30;;;;;;;19.13;11.77;;;9.40;99.90;;;;;;5054917;28;20451;-65
2020/12/07 01:38:56;;;;;;;17.90;11.27;;;9.40;99.90;;;;;;5054903;28;20459;-64
2020/12/07 01:41:22;;;;;;;15.53;11.10;;;9.40;99.90;;;;;;5054325;28;20455;-66
2020/12/07 01:43:48;;;;;;;16.57;11.23;;;9.40;99.90;;;;;;5054321;28;20486;-65
2020/12/07 01:46:20;;;;;;;17.93;10.40;;;9.40;99.90;;;;;;5054801;28;20455;-65
2020/12/07 01:48:46;;;;;;;16.00;11.17;;;9.40;99.90;;;;;;5054647;28;20443;-64
2020/12/07 01:51:14;;;;;;;17.80;11.47;;;9.40;99.90;;;;;;5054664;28;20548;-65
2020/12/07 01:53:41;;;;;;;19.60;11.47;;;9.30;99.90;;;;;;5055019;28;20585;-65
2020/12/07 01:56:12;;;;;;;19.50;11.37;;;9.30;99.90;;;;;;5055592;28;20459;-65
2020/12/07 01:58:38;;;;;;;15.77;11.33;;;9.30;99.90;;;;;;5055067;28;20901;-64
2020/12/07 02:01:04;;;;;;;15.93;11.63;;;9.30;99.90;;;;;;5054558;28;20520;-65
2020/12/07 02:03:30;;;;;;;17.20;12.20;;;9.20;99.90;;;;;;5054479;28;20455;-65
2020/12/07 02:05:57;;;;;;;19.13;12.17;;;9.20;99.90;;;;;;5054345;28;20851;-65
2020/12/07 02:08:24;;;;;;;17.03;12.60;;;9.20;99.90;;;;;;5054435;28;20463;-64
2020/12/07 02:10:50;;;;;;;15.40;11.07;;;9.20;99.90;;;;;;5054165;28;20944;-65
2020/12/07 02:13:17;;;;;;;19.20;11.87;;;9.20;99.90;;;;;;5054396;28;20451;-65
2020/12/07 02:15:43;;;;;;;18.23;11.97;;;9.20;99.90;;;;;;5054396;28;20458;-65
2020/12/07 02:18:09;;;;;;;16.30;11.40;;;9.20;99.90;;;;;;5054236;28;20797;-65
2020/12/07 02:20:37;;;;;;;19.73;11.70;;;9.20;99.90;;;;;;5054282;28;20838;-65
2020/12/07 02:23:03;;;;;;;21.40;11.63;;;9.20;99.90;;;;;;5054536;28;20450;-64
2020/12/07 02:25:29;;;;;;;21.13;12.90;;;9.20;99.90;;;;;;5054228;28;20475;-65
2020/12/07 02:27:55;;;;;;;18.67;11.30;;;9.20;99.90;;;;;;5054328;28;20454;-64
2020/12/07 02:30:23;;;;;;;23.13;13.20;;;9.20;99.90;;;;;;5054239;28;20455;-64
2020/12/07 02:32:50;;;;;;;16.73;12.57;;;9.20;99.90;;;;;;5054342;28;20451;-65
2020/12/07 02:35:17;;;;;;;18.30;11.07;;;9.20;99.90;;;;;;5054268;28;20451;-65
2020/12/07 02:37:46;;;;;;;14.57;11.17;;;9.20;99.90;;;;;;5053926;28;20454;-64
2020/12/07 02:40:12;;;;;;;16.90;11.80;;;9.20;99.90;;;;;;5056702;28;20486;-63
2020/12/07 02:42:39;;;;;;;20.50;13.33;;;9.10;99.90;;;;;;5057586;28;21065;-64
2020/12/07 02:45:08;;;;;;;18.03;12.33;;;9.10;99.90;;;;;;5057682;28;20479;-64
2020/12/07 02:47:34;;;;;;;15.53;10.93;;;9.10;99.90;;;;;;5059195;28;20450;-65
2020/12/07 02:50:01;;;;;;;17.30;11.53;;;9.10;99.90;;;;;;5066579;28;20455;-64
2020/12/07 02:52:28;;;;;;;22.10;12.30;;;9.10;99.90;;;;;;5069157;28;20514;-64
2020/12/07 02:54:56;;;;;;;18.07;11.77;;;9.10;99.90;;;;;;5068406;28;20514;-64
2020/12/07 02:57:23;;;;;;;17.57;11.60;;;9.10;99.90;;;;;;5065849;28;20550;-64
2020/12/07 02:59:51;;;;;;;15.97;11.93;;;9.10;99.90;;;;;;5061405;28;20451;-65
2020/12/07 03:02:17;;;;;;;17.70;12.50;;;9.10;99.90;;;;;;5058029;28;20451;-64
2020/12/07 03:04:43;;;;;;;19.50;12.00;;;9.10;99.90;;;;;;5057404;28;20506;-64
2020/12/07 03:07:10;;;;;;;16.10;11.00;;;9.10;99.90;;;;;;5058197;28;20458;-64
2020/12/07 03:09:36;;;;;;;20.03;11.83;;;9.10;99.90;;;;;;5058133;28;20451;-65
2020/12/07 03:12:03;;;;;;;16.90;11.43;;;9.20;99.90;;;;;;5057714;28;20824;-65
2020/12/07 03:14:30;;;;;;;14.40;10.80;;;9.20;99.90;;;;;;5057638;28;20834;-65
2020/12/07 03:16:56;;;;;;;15.70;11.50;;;9.20;99.90;;;;;;5057388;28;20455;-65
2020/12/07 03:19:22;;;;;;;17.30;11.90;;;9.20;99.90;;;;;;5056719;28;20447;-67
2020/12/07 03:21:49;;;;;;;19.43;11.23;;;9.20;99.90;;;;;;5056972;28;20467;-65
2020/12/07 03:24:15;;;;;;;16.03;11.10;;;9.30;99.90;;;;;;5056929;28;20540;-65
2020/12/07 03:26:42;;;;;;;21.00;12.47;;;9.30;99.90;;;;;;5057661;28;20897;-66
2020/12/07 03:29:09;;;;;;;15.17;10.90;;;9.30;99.90;;;;;;5057143;28;20466;-67
2020/12/07 03:31:37;;;;;;;19.23;12.03;;;9.30;99.90;;;;;;5057827;28;20517;-66
2020/12/07 03:34:04;;;;;;;18.37;12.03;;;9.30;99.90;;;;;;5056935;28;20486;-67
2020/12/07 03:36:32;;;;;;;19.17;11.53;;;9.30;99.90;;;;;;5057372;28;20498;-65
2020/12/07 03:38:58;;;;;;;19.00;11.80;;;9.30;99.90;;;;;;5057013;28;20451;-66
2020/12/07 03:41:25;;;;;;;15.10;10.87;;;9.30;99.90;;;;;;5056923;28;20466;-66
2020/12/07 03:43:51;;;;;;;18.90;11.70;;;9.30;99.90;;;;;;5056458;28;20825;-66
2020/12/07 03:46:18;;;;;;;15.33;11.43;;;9.20;99.90;;;;;;5056808;28;20514;-65
2020/12/07 03:48:44;;;;;;;17.50;11.83;;;9.30;99.90;;;;;;5056853;28;20459;-66
2020/12/07 03:51:10;;;;;;;16.80;11.80;;;9.30;99.90;;;;;;5056153;28;20456;-66
2020/12/07 03:53:38;;;;;;;17.77;11.17;;;9.30;99.90;;;;;;5056516;28;20455;-66
2020/12/07 03:56:06;;;;;;;17.10;11.67;;;9.30;99.90;;;;;;5056314;28;20451;-66
2020/12/07 03:58:32;;;;;;;20.03;11.90;;;9.30;99.90;;;;;;5056423;28;20541;-66
2020/12/07 04:00:58;;;;;;;17.93;11.67;;;9.30;99.90;;;;;;5056305;28;20459;-65
2020/12/07 04:03:26;;;;;;;20.17;12.27;;;9.30;99.90;;;;;;5056903;28;20490;-65
2020/12/07 04:05:57;;;;;;;20.40;13.27;;;9.30;99.90;;;;;;5056491;28;20561;-65
2020/12/07 04:08:23;;;;;;;16.83;12.33;;;9.30;99.90;;;;;;5056527;28;20470;-64
2020/12/07 04:10:49;;;;;;;16.43;10.77;;;9.30;99.90;;;;;;5055890;28;20924;-64
2020/12/07 04:13:15;;;;;;;18.10;11.70;;;9.30;99.90;;;;;;5056117;28;20459;-65
2020/12/07 04:15:41;;;;;;;15.87;11.40;;;9.20;99.90;;;;;;5055868;28;20447;-65
2020/12/07 04:18:07;;;;;;;18.10;12.03;;;9.20;99.90;;;;;;5055940;28;20801;-64
2020/12/07 04:20:34;;;;;;;18.50;11.33;;;9.20;99.90;;;;;;5055889;28;20776;-65
2020/12/07 04:23:00;;;;;;;19.20;12.50;;;9.30;99.90;;;;;;5056076;28;20451;-65
2020/12/07 04:25:26;;;;;;;16.27;10.97;;;9.20;99.90;;;;;;5056351;28;20479;-65
2020/12/07 04:27:52;;;;;;;15.80;11.63;;;9.20;99.90;;;;;;5056320;28;20517;-65
2020/12/07 04:30:19;;;;;;;15.60;10.80;;;9.20;99.90;;;;;;5056204;28;20451;-64
2020/12/07 04:32:45;;;;;;;16.77;11.33;;;9.20;99.90;;;;;;5055874;28;20796;-65
2020/12/07 04:35:11;;;;;;;19.50;12.43;;;9.20;99.90;;;;;;5055748;28;20459;-65
2020/12/07 04:37:38;;;;;;;18.40;12.70;;;9.20;99.90;;;;;;5055732;28;20455;-65
2020/12/07 04:40:05;;;;;;;15.70;11.53;;;9.20;99.90;;;;;;5055883;28;20451;-64
2020/12/07 04:42:31;;;;;;;17.93;11.33;;;9.20;99.90;;;;;;5055267;28;20540;-66
2020/12/07 04:44:58;;;;;;;18.03;12.60;;;9.20;99.90;;;;;;5055332;28;20548;-65
2020/12/07 04:47:25;;;;;;;16.13;10.40;;;9.20;99.90;;;;;;5055524;28;20455;-65
2020/12/07 04:49:53;;;;;;;22.07;12.00;;;9.20;99.90;;;;;;5055584;28;20483;-64
2020/12/07 04:52:20;;;;;;;19.77;11.77;;;9.20;99.90;;;;;;5056207;28;20909;-66
2020/12/07 04:54:49;;;;;;;20.80;11.93;;;9.20;99.90;;;;;;5059045;28;20462;-65
2020/12/07 04:57:16;;;;;;;17.33;11.73;;;9.20;99.90;;;;;;5059443;28;20455;-65
2020/12/07 04:59:42;;;;;;;16.03;11.60;;;9.20;99.90;;;;;;5060844;28;20526;-68
2020/12/07 05:02:08;;;;;;;16.80;11.20;;;9.20;99.90;;;;;;5059240;28;20459;-65
2020/12/07 05:04:35;;;;;;;19.80;12.50;;;9.20;99.90;;;;;;5058332;28;20478;-64
2020/12/07 05:07:02;;;;;;;21.80;12.20;;;9.10;99.90;;;;;;5056393;28;20452;-65
2020/12/07 05:09:29;;;;;;;19.23;12.03;;;9.10;99.90;;;;;;5055985;28;20840;-64
2020/12/07 05:11:59;;;;;;;18.67;13.43;;;9.10;99.90;;;;;;5055277;28;20858;-65
2020/12/07 05:14:25;;;;;;;18.70;13.00;;;9.10;99.90;;;;;;5054909;28;20562;-65
2020/12/07 05:16:51;;;;;;;17.97;11.43;;;9.10;99.90;;;;;;5056540;28;20485;-65
2020/12/07 05:19:20;;;;;;;20.07;12.13;;;9.00;99.90;;;;;;5056556;28;20451;-64
2020/12/07 05:21:47;;;;;;;16.80;11.70;;;9.00;99.90;;;;;;5055192;28;20497;-65
2020/12/07 05:24:13;;;;;;;16.47;12.50;;;8.90;99.90;;;;;;5055527;28;20447;-64
2020/12/07 05:26:41;;;;;;;15.67;10.97;;;8.90;99.90;;;;;;5055169;28;20803;-65
2020/12/07 05:29:11;;;;;;;20.10;12.63;;;8.90;99.90;;;;;;5055286;28;20451;-64
2020/12/07 05:31:38;;;;;;;19.30;12.00;;;8.90;99.90;;;;;;5055745;28;20435;-65
2020/12/07 05:34:05;;;;;;;17.33;11.23;;;8.90;99.90;;;;;;5055159;28;20872;-64
2020/12/07 05:36:31;;;;;;;18.13;11.80;;;8.90;99.90;;;;;;5056520;28;20450;-64
2020/12/07 05:38:57;;;;;;;17.73;12.20;;;8.90;99.90;;;;;;5056093;28;20459;-64
2020/12/07 05:41:27;;;;;;;18.20;11.90;;;8.90;99.90;;;;;;5055720;28;20451;-64
2020/12/07 05:43:53;;;;;;;17.17;11.40;;;8.90;99.90;;;;;;5054505;28;20485;-64
2020/12/07 05:46:23;;;;;;;15.50;11.70;;;8.90;99.90;;;;;;5054669;28;20486;-65
2020/12/07 05:48:52;;;;;;;16.93;11.73;;;8.90;99.90;;;;;;5055041;28;20486;-63
2020/12/07 05:51:24;;;;;;;16.23;11.63;;;8.90;99.90;;;;;;5055496;28;20463;-64
2020/12/07 05:53:51;;;;;;;15.50;11.37;;;8.90;99.90;;;;;;5055967;28;20804;-65
2020/12/07 05:56:17;;;;;;;17.17;12.17;;;8.90;99.90;;;;;;5055462;28;20447;-65
2020/12/07 05:58:56;;;;;;;16.73;12.27;;;8.90;99.90;;;;;;5055259;28;20451;-65
2020/12/07 06:01:26;;;;;;;20.67;11.87;;;8.90;99.90;;;;;;5057039;28;20885;-64
2020/12/07 06:03:53;;;;;;;17.80;11.67;;;8.90;99.90;;;;;;5057916;28;20443;-64
2020/12/07 06:06:29;;;;;;;16.97;12.67;;;8.80;99.90;;;;;;5058342;28;20475;-63
2020/12/07 06:08:55;;;;;;;16.70;11.87;;;8.80;99.90;;;;;;5059064;28;20443;-64
2020/12/07 06:11:24;;;;;;;20.20;12.83;;;8.80;99.90;;;;;;5058675;28;20521;-64
2020/12/07 06:13:51;;;;;;;17.80;11.73;;;8.70;99.90;;;;;;5062298;28;20536;-64
2020/12/07 06:16:17;;;;;;;21.00;12.63;;;8.70;99.90;;;;;;5062869;28;20451;-64
2020/12/07 06:18:45;;;;;;;20.40;12.37;;;8.70;99.90;;;;;;5060014;28;20462;-65
2020/12/07 06:21:16;;;;;;;16.60;11.60;;;8.70;99.90;;;;;;5058284;28;20455;-64
2020/12/07 06:23:44;;;;;;;19.17;12.20;;;8.70;99.90;;;;;;5059596;28;20877;-65
2020/12/07 06:26:12;;;;;;;15.93;11.53;;;8.60;99.90;;;;;;5058835;28;20482;-64
2020/12/07 06:28:40;;;;;;;19.97;12.77;;;8.60;99.90;;;;;;5058307;28;20989;-65
2020/12/07 06:31:07;;;;;;;16.40;11.70;;;8.60;99.90;;;;;;5057765;28;20928;-65
2020/12/07 06:33:42;;;;;;;18.97;12.90;;;8.60;99.90;;;;;;5057771;28;20931;-65
2020/12/07 06:36:25;;;;;;;20.07;12.30;;;8.60;99.90;;;;;;5057951;28;20450;-65
2020/12/07 06:38:51;;;;;;;19.20;13.00;;;8.60;99.90;;;;;;5057674;28;20851;-65
2020/12/07 06:41:18;;;;;;;19.83;11.90;;;8.60;99.90;;;;;;5057985;28;20440;-65
2020/12/07 06:43:57;;;;;;;15.93;12.30;;;8.50;99.90;;;;;;5057662;28;20493;-64
2020/12/07 06:46:50;;;;;;;19.37;12.67;;;8.50;99.90;;;;;;5057940;28;20803;-64
2020/12/07 06:49:17;;;;;;;22.23;12.50;;;8.50;99.90;;;;;;5059096;28;20435;-64
2020/12/07 06:51:47;;;;;;;19.60;12.90;;;8.50;99.90;;;;;;5058720;28;20497;-64
2020/12/07 06:57:23;;;;;;;19.20;12.50;;;8.40;99.90;;;;;;5058898;28;20486;-65
2020/12/07 06:59:58;;;;;;;19.20;12.10;;;8.40;99.90;;;;;;5059588;28;20461;-65
2020/12/07 07:02:25;;;;;;;17.77;12.60;;;8.40;99.90;;;;;;5059538;28;20467;-65
2020/12/07 07:04:52;;;;;;;18.97;12.80;;;8.40;99.90;;;;;;5057308;28;20479;-64
2020/12/07 07:07:20;;;;;;;19.93;13.37;;;8.40;99.90;;;;;;5057422;28;20459;-63
2020/12/07 07:09:47;;;;;;;21.90;13.47;;;8.40;99.90;;;;;;5057475;28;20532;-64
2020/12/07 07:12:14;;;;;;;18.63;12.47;;;8.40;99.90;;;;;;5057573;28;20461;-64
2020/12/07 07:14:42;;;;;;;21.20;12.80;;;8.40;99.90;;;;;;5057908;28;20462;-64
2020/12/07 07:17:09;;;;;;;19.47;12.57;;;8.40;99.90;;;;;;5057269;28;20892;-64
2020/12/07 07:19:35;;;;;;;18.23;12.33;;;8.40;99.90;;;;;;5057390;28;20501;-65
2020/12/07 07:22:02;;;;;;;18.50;12.70;;;8.40;99.90;;;;;;5057030;28;20462;-64
2020/12/07 07:24:33;;;;;;;20.23;13.80;;;8.40;99.90;;;;;;5056835;28;20756;-63
2020/12/07 07:27:53;;;;;;;18.90;12.70;;;8.50;99.90;;;;;;5057341;28;20431;-64
2020/12/07 07:29:47;;;;;;;19.33;12.90;;;8.50;99.90;;;;;;5056652;28;20447;-64
2020/12/07 07:32:13;;;;;;;18.67;12.53;;;8.40;99.90;;;;;;5057429;28;20455;-63
2020/12/07 07:34:42;;;;;;;17.40;12.17;;;8.40;99.90;;;;;;5056989;28;20201;-65
2020/12/07 07:37:08;;;;;;;16.90;12.27;;;8.40;99.90;;;;;;5057059;28;20518;-64
2020/12/07 07:39:35;;;;;;;20.30;12.03;;;8.40;99.90;;;;;;5057358;28;20450;-64
2020/12/07 07:42:07;;;;;;;19.30;11.23;;;8.40;99.90;;;;;;5058547;28;20548;-64
2020/12/07 07:44:33;;;;;;;17.77;12.90;;;8.40;99.90;;;;;;5057180;28;20493;-64
2020/12/07 07:47:04;;;;;;;16.93;11.60;;;8.40;99.90;;;;;;5057276;28;20581;-63
2020/12/07 07:49:50;;;;;;;17.80;13.00;;;8.40;99.90;;;;;;5057944;28;20432;-65
2020/12/07 08:01:47;;;;;;;17.60;12.60;;;8.40;99.90;;;;;;5056561;28;20508;-63
2020/12/07 08:15:28;;;;;;;16.03;12.27;;;8.40;99.90;;;;;;5056383;28;20431;-65
2020/12/07 08:17:55;;;;;;;16.33;11.13;;;8.40;99.90;;;;;;5056487;28;20451;-65
2020/12/07 08:20:24;;;;;;;22.80;12.90;;;8.40;99.90;;;;;;5056449;28;20509;-64
2020/12/07 08:22:58;;;;;;;16.70;11.67;;;8.40;99.90;;;;;;5056161;28;20880;-64
2020/12/07 08:25:47;;;;;;;21.10;12.67;;;8.40;99.90;;;;;;5056583;28;21017;-65
2020/12/07 08:28:25;;;;;;;15.80;11.60;;;8.40;99.90;;;;;;5056132;28;20917;-64
2020/12/07 08:31:03;;;;;;;15.70;12.43;;;8.40;99.90;;;;;;5056089;28;20941;-65
2020/12/07 08:33:31;;;;;;;17.00;11.50;;;8.40;99.90;;;;;;5055875;28;20507;-64
2020/12/07 08:35:59;;;;;;;20.80;12.27;;;8.40;99.90;;;;;;5055442;28;20450;-64
2020/12/07 08:38:27;;;;;;;22.97;13.40;;;8.50;99.90;;;;;;5055473;28;20455;-65
2020/12/07 08:40:53;;;;;;;18.70;12.43;;;8.50;99.90;;;;;;5055746;28;20455;-65
2020/12/07 08:43:21;;;;;;;17.30;12.40;;;8.50;99.90;;;;;;5055952;28;20507;-65
2020/12/07 08:45:47;;;;;;;16.30;12.17;;;8.50;99.90;;;;;;5055676;28;20483;-65
2020/12/07 08:48:14;;;;;;;16.10;12.17;;;8.50;99.90;;;;;;5055596;28;20491;-65
2020/12/07 08:50:40;;;;;;;20.10;12.27;;;8.50;99.90;;;;;;5055456;28;20466;-65
2020/12/07 08:53:06;;;;;;;16.83;13.00;;;8.60;99.90;;;;;;5055982;28;20458;-65
2020/12/07 08:55:32;;;;;;;16.80;12.20;;;8.50;99.90;;;;;;5055909;28;20447;-67
2020/12/07 08:57:58;;;;;;;16.27;11.10;;;8.60;99.90;;;;;;5056653;28;20462;-65
2020/12/07 09:00:25;;;;;;;20.43;11.90;;;8.60;99.90;;;;;;5056491;28;20540;-65
2020/12/07 09:02:51;;;;;;;17.87;12.67;;;8.60;99.90;;;;;;5057393;28;20525;-64
2020/12/07 09:05:17;;;;;;;16.67;12.50;;;8.70;99.90;;;;;;5055791;28;20605;-65
2020/12/07 09:07:43;;;;;;;21.77;13.60;;;8.70;99.90;;;;;;5055991;28;20792;-64
2020/12/07 09:10:09;;;;;;;18.13;11.57;;;8.70;99.90;;;;;;5056129;28;20455;-64
2020/12/07 09:12:36;;;;;;;19.23;13.03;;;8.80;99.90;;;;;;5055431;28;20466;-65
2020/12/07 09:15:03;;;;;;;17.50;11.93;;;8.80;99.90;;;;;;5056601;28;20447;-64
2020/12/07 09:17:30;;;;;;;19.43;13.57;;;8.80;99.90;;;;;;5056836;28;20978;-65
2020/12/07 09:19:57;;;;;;;21.27;13.90;;;8.90;99.90;;;;;;5056637;28;20470;-64
2020/12/07 09:22:23;;;;;;;20.33;12.80;;;8.90;99.90;;;;;;5056831;28;20509;-65
2020/12/07 09:24:49;;;;;;;18.83;12.53;;;8.90;99.90;;;;;;5056058;28;20466;-65
2020/12/07 09:27:15;;;;;;;20.40;11.83;;;8.90;99.90;;;;;;5055307;28;20463;-65
2020/12/07 09:29:41;;;;;;;20.10;12.40;;;8.90;99.90;;;;;;5055052;28;20590;-65
2020/12/07 09:32:07;;;;;;;12.77;11.27;;;9.00;99.90;;;;;;5055226;28;20460;-64
2020/12/07 09:34:34;;;;;;;18.83;12.80;;;9.00;99.90;;;;;;5056037;28;20451;-65
2020/12/07 09:37:00;;;;;;;17.67;11.77;;;9.00;99.90;;;;;;5054822;28;20546;-65
2020/12/07 09:39:26;;;;;;;20.40;11.40;;;9.00;99.90;;;;;;5054878;28;20928;-64
2020/12/07 09:41:52;;;;;;;17.20;12.13;;;9.00;99.90;;;;;;5054777;28;20524;-64
2020/12/07 09:44:19;;;;;;;21.83;12.20;;;9.00;99.90;;;;;;5054480;28;20493;-65
2020/12/07 09:46:45;;;;;;;19.20;12.47;;;9.10;99.90;;;;;;5055021;28;20513;-64
2020/12/07 09:49:11;;;;;;;21.00;11.87;;;9.10;99.90;;;;;;5057645;28;20490;-65
2020/12/07 09:51:38;;;;;;;17.70;13.30;;;9.10;99.90;;;;;;5059249;28;20530;-66
2020/12/07 09:54:04;;;;;;;15.80;11.23;;;9.10;99.90;;;;;;5058706;28;20788;-65
2020/12/07 09:56:30;;;;;;;18.00;12.60;;;9.10;99.90;;;;;;5059331;28;20546;-65
2020/12/07 09:58:57;;;;;;;18.30;13.60;;;9.10;99.90;;;;;;5059398;28;20455;-65
2020/12/07 10:01:24;;;;;;;16.13;12.23;;;9.10;99.90;;;;;;5059350;28;20470;-65
2020/12/07 10:03:50;;;;;;;17.50;11.90;;;9.10;99.90;;;;;;5058697;28;20455;-65
2020/12/07 10:06:16;;;;;;;16.50;11.37;;;9.10;99.90;;;;;;5059159;28;20552;-65
2020/12/07 10:08:43;;;;;;;19.20;11.97;;;9.10;99.90;;;;;;5059539;28;20828;-64
2020/12/07 10:11:12;;;;;;;20.33;12.50;;;9.10;99.90;;;;;;5058750;28;20447;-65
2020/12/07 10:13:38;;;;;;;18.20;12.97;;;9.20;99.90;;;;;;5058792;28;20516;-64
2020/12/07 10:16:04;;;;;;;18.47;11.67;;;9.20;99.90;;;;;;5059063;28;20451;-64
2020/12/07 10:18:30;;;;;;;17.57;12.57;;;9.20;99.90;;;;;;5058860;28;20458;-64
2020/12/07 10:20:56;;;;;;;16.00;11.30;;;9.20;99.90;;;;;;5058661;28;20451;-65
2020/12/07 10:23:23;;;;;;;18.50;12.50;;;9.20;99.90;;;;;;5058738;28;20450;-64
2020/12/07 10:25:50;;;;;;;20.90;12.67;;;9.20;99.90;;;;;;5059844;28;20475;-65
2020/12/07 10:28:16;;;;;;;18.87;12.13;;;9.20;99.90;;;;;;5060291;28;20489;-64
2020/12/07 10:30:42;;;;;;;19.40;11.43;;;9.20;99.90;;;;;;5065433;28;20528;-64
2020/12/07 10:33:08;;;;;;;19.27;12.17;;;9.20;99.90;;;;;;5063336;28;20451;-65
2020/12/07 10:35:34;;;;;;;17.80;12.47;;;9.20;99.90;;;;;;5061773;28;20920;-64
2020/12/07 10:38:01;;;;;;;19.37;13.77;;;9.20;99.90;;;;;;5063726;28;20451;-65
2020/12/07 10:40:27;;;;;;;17.93;12.40;;;9.10;99.90;;;;;;5061355;28;20459;-65
2020/12/07 10:42:54;;;;;;;19.90;13.63;;;9.10;99.90;;;;;;5060545;28;20481;-65
2020/12/07 10:45:20;;;;;;;16.33;12.20;;;9.10;99.90;;;;;;5059813;28;20478;-65
2020/12/07 10:47:46;;;;;;;16.60;12.40;;;9.10;99.90;;;;;;5059350;28;20455;-65
2020/12/07 10:50:12;;;;;;;17.70;12.50;;;9.10;99.90;;;;;;5059529;28;20979;-65
2020/12/07 10:52:38;;;;;;;17.10;12.50;;;9.10;99.90;;;;;;5059727;28;20509;-64
2020/12/07 10:55:04;;;;;;;20.03;12.90;;;9.10;99.90;;;;;;5058798;28;20528;-67
2020/12/07 10:57:30;;;;;;;23.43;13.87;;;9.10;99.90;;;;;;5058458;28;20513;-65
2020/12/07 10:59:57;;;;;;;18.93;12.93;;;9.10;99.90;;;;;;5057881;28;20513;-65
2020/12/07 11:02:23;;;;;;;19.33;13.50;;;9.10;99.90;;;;;;5057542;28;20512;-65
2020/12/07 11:04:49;;;;;;;17.83;12.87;;;9.10;99.90;;;;;;5057580;28;20458;-66
2020/12/07 11:07:18;;;;;;;16.60;12.40;;;9.20;99.90;;;;;;5057818;28;20491;-65
2020/12/07 11:09:44;;;;;;;19.13;13.10;;;9.20;99.90;;;;;;5057482;28;20967;-65
2020/12/07 11:12:13;;;;;;;19.60;13.13;;;9.20;99.90;;;;;;5057405;28;20462;-64
2020/12/07 11:14:39;;;;;;;18.70;12.70;;;9.20;99.90;;;;;;5057262;28;20451;-65
2020/12/07 11:17:08;;;;;;;21.77;13.57;;;9.20;99.90;;;;;;5057487;28;20520;-66
2020/12/07 11:19:34;;;;;;;20.13;12.13;;;9.20;99.90;;;;;;5057313;28;20459;-64
2020/12/07 11:22:00;;;;;;;18.00;12.40;;;9.30;99.90;;;;;;5058086;28;20451;-64
2020/12/07 11:24:26;;;;;;;18.47;13.07;;;9.30;99.90;;;;;;5057207;28;20939;-66
2020/12/07 11:26:52;;;;;;;18.30;12.23;;;9.30;99.90;;;;;;5057474;28;20478;-65
2020/12/07 11:29:18;;;;;;;19.73;13.47;;;9.30;99.90;;;;;;5057117;28;20455;-65
2020/12/07 11:31:46;;;;;;;23.37;14.20;;;9.40;99.90;;;;;;5056979;28;20524;-65
2020/12/07 11:34:19;;;;;;;17.10;12.97;;;9.40;99.90;;;;;;5056803;28;20459;-64
2020/12/07 11:36:45;;;;;;;19.33;12.60;;;9.40;99.90;;;;;;5056746;28;20443;-64
2020/12/07 11:39:22;;;;;;;21.93;13.10;;;9.40;99.90;;;;;;5056826;28;20925;-65
2020/12/07 11:42:00;;;;;;;15.83;11.90;;;9.40;99.90;;;;;;5057697;28;20877;-64
2020/12/07 11:44:26;;;;;;;21.00;13.83;;;9.40;99.90;;;;;;5057125;28;20568;-65
2020/12/07 11:46:55;;;;;;;17.77;12.67;;;9.40;99.90;;;;;;5056912;28;20479;-64
2020/12/07 11:49:23;;;;;;;23.83;14.50;;;9.40;99.90;;;;;;5057218;28;20494;-65
2020/12/07 11:51:49;;;;;;;18.90;13.63;;;9.40;99.90;;;;;;5057250;28;20797;-64
2020/12/07 11:54:15;;;;;;;20.40;14.60;;;9.30;99.90;;;;;;5056146;28;20908;-64
2020/12/07 11:56:41;;;;;;;19.30;13.50;;;9.20;99.90;;;;;;5056478;28;20447;-64
2020/12/07 11:59:09;;;;;;;19.30;13.40;;;9.10;99.90;;;;;;5056651;28;20455;-64
2020/12/07 12:01:35;;;;;;;18.90;12.67;;;9.10;99.90;;;;;;5057061;28;20869;-64
2020/12/07 12:04:03;;;;;;;16.47;12.47;;;9.20;99.90;;;;;;5056490;28;20450;-65
2020/12/07 12:06:34;;;;;;;18.70;13.03;;;9.20;99.90;;;;;;5056878;28;20800;-64
2020/12/07 12:09:00;;;;;;;19.10;14.57;;;9.20;99.90;;;;;;5057333;28;20443;-65
2020/12/07 12:11:28;;;;;;;20.20;13.10;;;9.20;99.90;;;;;;5056521;28;20467;-65
2020/12/07 12:13:54;;;;;;;17.10;12.80;;;9.20;99.90;;;;;;5057722;28;20459;-66
2020/12/07 12:16:21;;;;;;;20.90;14.00;;;9.10;99.90;;;;;;5056742;28;20563;-63
2020/12/07 12:18:47;;;;;;;18.57;13.10;;;9.10;99.90;;;;;;5056083;28;20912;-65
2020/12/07 12:21:13;;;;;;;18.97;12.70;;;9.00;99.90;;;;;;5056665;28;20512;-64
2020/12/07 12:23:40;;;;;;;17.70;12.90;;;9.10;99.90;;;;;;5056077;28;20520;-65
2020/12/07 12:26:06;;;;;;;19.07;12.90;;;9.10;99.90;;;;;;5056184;28;20486;-65
2020/12/07 12:28:32;;;;;;;17.20;13.43;;;9.10;99.90;;;;;;5055893;28;20451;-65
2020/12/07 12:30:58;;;;;;;19.57;12.67;;;9.10;99.90;;;;;;5055990;28;20455;-65
2020/12/07 12:33:24;;;;;;;16.33;12.87;;;9.10;99.90;;;;;;5056016;28;20451;-64
2020/12/07 12:35:50;;;;;;;21.43;14.13;;;9.10;99.90;;;;;;5056276;28;20481;-64
2020/12/07 12:38:16;;;;;;;21.43;13.03;;;9.00;99.90;;;;;;5056876;28;20919;-65
2020/12/07 12:40:43;;;;;;;20.83;14.10;;;9.00;99.90;;;;;;5057005;28;20916;-65
2020/12/07 12:43:09;;;;;;;20.70;14.70;;;9.00;99.90;;;;;;5060069;28;20483;-64
2020/12/07 12:45:35;;;;;;;19.80;13.20;;;9.00;99.90;;;;;;5060160;28;20545;-64
2020/12/07 12:48:02;;;;;;;20.80;14.77;;;9.00;99.90;;;;;;5060477;28;20464;-64
2020/12/07 12:50:28;;;;;;;21.90;15.13;;;8.80;99.90;;;;;;5058809;28;20459;-64
2020/12/07 12:52:54;;;;;;;22.67;14.83;;;8.70;99.90;;;;;;5056683;28;20455;-65
2020/12/07 12:55:20;;;;;;;21.00;14.80;;;8.70;99.90;;;;;;5055573;28;20450;-65
2020/12/07 12:57:47;;;;;;;22.30;15.07;;;8.70;99.90;;;;;;5055449;28;20529;-65
2020/12/07 13:00:13;;;;;;;21.67;14.60;;;8.60;99.90;;;;;;5055276;28;20530;-64